createdAt,value
2022-10-18T00:01:28.668Z,102443.16
2022-10-18T00:03:58.394Z,102443.16
2022-10-18T00:06:30.765Z,102436.03
2022-10-18T00:09:00.557Z,102445.66
2022-10-18T00:11:30.359Z,102437.66
2022-10-18T00:14:00.659Z,102445.59
2022-10-18T00:16:30.534Z,102437.56
2022-10-18T00:19:00.267Z,102441.06
2022-10-18T00:21:32.700Z,102442.75
2022-10-18T00:24:02.946Z,102448.81
2022-10-18T00:26:33.748Z,102454.03
2022-10-18T00:29:07.594Z,102447.81
2022-10-18T00:31:39.180Z,102442.34
2022-10-18T00:34:10.622Z,102438.69
2022-10-18T00:36:43.061Z,102444.75
2022-10-18T00:39:18.109Z,102448.09
2022-10-18T00:41:49.168Z,102449.78
2022-10-18T00:44:48.880Z,102452.31
2022-10-18T00:47:19.661Z,102459.22
2022-10-18T00:49:53.313Z,102461.66
2022-10-18T00:52:30.035Z,102455.41
2022-10-18T00:55:00.796Z,102452.66
2022-10-18T00:57:30.937Z,102448.28
2022-10-18T01:00:00.750Z,102446.44
2022-10-18T01:02:32.422Z,102448.19
2022-10-18T01:05:04.450Z,102443.75
2022-10-18T01:07:53.337Z,102442.91
2022-10-18T01:10:32.884Z,102443.78
2022-10-18T01:13:19.889Z,102449.09
2022-10-18T01:15:59.471Z,102456.22
2022-10-18T01:18:35.323Z,102448.28
2022-10-18T01:21:14.728Z,102457.22
2022-10-18T01:24:04.031Z,102453.72
2022-10-18T01:26:53.669Z,102452.81
2022-10-18T01:29:35.857Z,102450.19
2022-10-18T01:32:12.829Z,102459.03
2022-10-18T01:34:45.807Z,102460.69
2022-10-18T01:37:20.430Z,102460.53
2022-10-18T01:39:51.003Z,102464.94
2022-10-18T01:42:23.121Z,102457.75
2022-10-18T01:44:55.349Z,102460.41
2022-10-18T01:47:28.763Z,102464.81
2022-10-18T01:50:02.413Z,102455.09
2022-10-18T01:52:32.674Z,102447.94
2022-10-18T01:55:04.787Z,102449.69
2022-10-18T01:57:41.286Z,102436.38
2022-10-18T02:00:17.814Z,102447.84
2022-10-18T02:02:54.194Z,102446.09
2022-10-18T02:05:32.114Z,102435.47
2022-10-18T02:08:22.408Z,102445.16
2022-10-18T02:10:58.529Z,102457.47
2022-10-18T02:13:32.678Z,102465.41
2022-10-18T02:16:10.804Z,102463.63
2022-10-18T02:18:47.455Z,102461.78
2022-10-18T02:21:20.519Z,102456.38
2022-10-18T02:23:51.399Z,102458.03
2022-10-18T02:26:21.747Z,102470.44
2022-10-18T02:28:51.677Z,102465.94
2022-10-18T02:31:28.063Z,102467.69
2022-10-18T02:34:05.543Z,102467.69
2022-10-18T02:36:40.106Z,102464.09
2022-10-18T02:39:15.001Z,102465.84
2022-10-18T02:41:45.686Z,102460.50
2022-10-18T02:44:15.570Z,102458.63
2022-10-18T02:46:46.102Z,102460.41
2022-10-18T02:49:18.755Z,102467.47
2022-10-18T02:51:48.880Z,102465.63
2022-10-18T02:54:18.931Z,102469.13
2022-10-18T02:56:48.828Z,102470.03
2022-10-18T02:59:19.059Z,102465.59
2022-10-18T03:01:49.196Z,102474.28
2022-10-18T03:04:21.948Z,102478.69
2022-10-18T03:06:51.800Z,102470.66
2022-10-18T03:09:21.688Z,102468.88
2022-10-18T03:11:51.439Z,102474.97
2022-10-18T03:14:21.232Z,102473.22
2022-10-18T03:16:50.995Z,102466.13
2022-10-18T03:19:23.409Z,102467.00
2022-10-18T03:21:53.195Z,102469.47
2022-10-18T03:24:23.005Z,102465.94
2022-10-18T03:26:52.789Z,102465.88
2022-10-18T03:29:22.537Z,102475.47
2022-10-18T03:31:52.232Z,102473.59
2022-10-18T03:34:24.581Z,102467.38
2022-10-18T03:36:55.102Z,102468.16
2022-10-18T03:39:24.832Z,102474.28
2022-10-18T03:41:54.772Z,102483.97
2022-10-18T03:44:24.570Z,102491.00
2022-10-18T03:46:54.263Z,102486.63
2022-10-18T03:49:26.724Z,102479.50
2022-10-18T03:51:56.465Z,102469.63
2022-10-18T03:54:26.206Z,102475.72
2022-10-18T03:56:55.963Z,102479.22
2022-10-18T03:59:25.805Z,102477.44
2022-10-18T04:01:55.649Z,102487.94
2022-10-18T04:04:28.054Z,102494.13
2022-10-18T04:06:57.861Z,102489.72
2022-10-18T04:09:27.635Z,102495.94
2022-10-18T04:11:57.529Z,102503.88
2022-10-18T04:14:27.436Z,102502.06
2022-10-18T04:16:57.188Z,102503.72
2022-10-18T04:19:29.682Z,102491.25
2022-10-18T04:21:59.495Z,102494.66
2022-10-18T04:24:29.181Z,102505.19
2022-10-18T04:26:58.913Z,102518.41
2022-10-18T04:29:28.725Z,102517.50
2022-10-18T04:31:58.412Z,102517.50
2022-10-18T04:34:30.862Z,102513.03
2022-10-18T04:37:00.593Z,102515.69
2022-10-18T04:39:30.482Z,102510.25
2022-10-18T04:42:00.241Z,102497.72
2022-10-18T04:44:29.959Z,102510.69
2022-10-18T04:46:59.672Z,102527.50
2022-10-18T04:49:32.065Z,102530.97
2022-10-18T04:52:01.771Z,102527.34
2022-10-18T04:54:31.477Z,102516.63
2022-10-18T04:57:01.202Z,102510.34
2022-10-18T04:59:31.102Z,102499.72
2022-10-18T05:02:00.892Z,102522.53
2022-10-18T05:04:33.567Z,102523.28
2022-10-18T05:07:03.291Z,102523.28
2022-10-18T05:09:32.982Z,102517.91
2022-10-18T05:12:02.691Z,102516.03
2022-10-18T05:14:32.388Z,102500.03
2022-10-18T05:17:02.108Z,102499.03
2022-10-18T05:19:34.429Z,102492.78
2022-10-18T05:22:04.120Z,102496.25
2022-10-18T05:24:33.862Z,102496.19
2022-10-18T05:27:03.744Z,102511.97
2022-10-18T05:29:33.468Z,102512.78
2022-10-18T05:32:03.373Z,102506.59
2022-10-18T05:34:35.728Z,102506.53
2022-10-18T05:37:05.849Z,102502.00
2022-10-18T05:39:35.565Z,102523.97
2022-10-18T05:42:05.304Z,102517.63
2022-10-18T05:44:35.286Z,102498.06
2022-10-18T05:47:04.966Z,102496.84
2022-10-18T05:49:37.348Z,102516.00
2022-10-18T05:52:07.519Z,102516.75
2022-10-18T05:54:37.250Z,102507.84
2022-10-18T05:57:07.130Z,102502.41
2022-10-18T05:59:36.920Z,102496.09
2022-10-18T06:02:06.864Z,102503.91
2022-10-18T06:04:39.467Z,102508.16
2022-10-18T06:07:12.404Z,102504.44
2022-10-18T06:09:42.944Z,102498.84
2022-10-18T06:12:12.766Z,102510.16
2022-10-18T06:14:42.647Z,102509.19
2022-10-18T06:17:12.554Z,102534.69
2022-10-18T06:19:45.862Z,102539.88
2022-10-18T06:22:15.900Z,102548.50
2022-10-18T06:24:45.621Z,102545.59
2022-10-18T06:27:15.369Z,102543.38
2022-10-18T06:29:45.170Z,102539.44
2022-10-18T06:32:14.972Z,102540.91
2022-10-18T06:34:47.416Z,102544.22
2022-10-18T06:37:17.389Z,102554.75
2022-10-18T06:39:47.143Z,102554.72
2022-10-18T06:42:19.088Z,102556.50
2022-10-18T06:44:51.652Z,102567.00
2022-10-18T06:47:21.390Z,102574.06
2022-10-18T06:49:53.680Z,102574.97
2022-10-18T06:52:25.807Z,102588.28
2022-10-18T06:54:55.670Z,102585.63
2022-10-18T06:57:25.461Z,102577.72
2022-10-18T06:59:55.175Z,102576.81
2022-10-18T07:02:24.890Z,102582.09
2022-10-18T07:04:57.362Z,102579.44
2022-10-18T07:07:27.378Z,102566.16
2022-10-18T07:09:57.246Z,102580.09
2022-10-18T07:12:27.385Z,102586.28
2022-10-18T07:14:57.236Z,102593.28
2022-10-18T07:17:27.393Z,102581.91
2022-10-18T07:20:00.086Z,102575.72
2022-10-18T07:22:30.460Z,102588.03
2022-10-18T07:25:00.435Z,102588.09
2022-10-18T07:27:30.486Z,102605.66
2022-10-18T07:30:00.470Z,102617.13
2022-10-18T07:32:30.230Z,102615.31
2022-10-18T07:35:02.811Z,102604.84
2022-10-18T07:37:33.427Z,102612.75
2022-10-18T07:40:03.422Z,102618.94
2022-10-18T07:42:33.139Z,102618.09
2022-10-18T07:45:02.854Z,102620.75
2022-10-18T07:47:35.105Z,102627.75
2022-10-18T07:50:08.596Z,102623.47
2022-10-18T07:52:38.369Z,102626.13
2022-10-18T07:55:08.631Z,102648.28
2022-10-18T07:57:38.387Z,102642.28
2022-10-18T08:00:09.702Z,102645.91
2022-10-18T08:02:39.517Z,102646.81
2022-10-18T08:05:12.558Z,102645.25
2022-10-18T08:07:42.353Z,102644.69
2022-10-18T08:10:12.790Z,102644.09
2022-10-18T08:12:42.619Z,102625.88
2022-10-18T08:15:13.405Z,102627.00
2022-10-18T08:17:55.795Z,102646.75
2022-10-18T08:20:31.204Z,102637.38
2022-10-18T08:23:02.314Z,102650.94
2022-10-18T08:25:33.594Z,102656.72
2022-10-18T08:28:03.411Z,102661.25
2022-10-18T08:30:33.209Z,102663.28
2022-10-18T08:33:02.982Z,102668.00
2022-10-18T08:35:35.579Z,102661.97
2022-10-18T08:40:56.222Z,102670.31
2022-10-18T08:46:06.108Z,102668.94
2022-10-18T08:48:41.562Z,102667.44
2022-10-18T08:51:23.624Z,102657.13
2022-10-18T08:54:02.447Z,102663.53
2022-10-18T08:56:32.499Z,102657.59
2022-10-18T08:59:04.775Z,102658.78
2022-10-18T09:01:46.210Z,102659.84
2022-10-18T09:04:33.079Z,102669.84
2022-10-18T09:07:32.106Z,102666.56
2022-10-18T09:10:10.196Z,102664.09
2022-10-18T09:13:02.277Z,102674.06
2022-10-18T09:15:42.720Z,102678.66
2022-10-18T09:18:45.783Z,102675.25
2022-10-18T09:21:22.982Z,102672.94
2022-10-18T09:24:04.145Z,102673.22
2022-10-18T09:26:39.580Z,102675.28
2022-10-18T09:31:54.502Z,102673.94
2022-10-18T09:34:31.917Z,102676.91
2022-10-18T09:37:03.040Z,102677.94
2022-10-18T09:39:39.163Z,102687.94
2022-10-18T09:42:17.763Z,102691.63
2022-10-18T09:44:51.954Z,102697.16
2022-10-18T09:47:26.216Z,102695.53
2022-10-18T09:50:00.830Z,102697.41
2022-10-18T09:52:39.102Z,102697.53
2022-10-18T09:55:18.602Z,102703.97
2022-10-18T09:57:53.288Z,102705.97
2022-10-18T10:00:27.844Z,102699.09
2022-10-18T10:02:57.710Z,102718.59
2022-10-18T10:05:27.410Z,102727.59
2022-10-18T10:08:02.625Z,102726.00
2022-10-18T10:10:36.341Z,102719.13
2022-10-18T10:13:08.593Z,102729.97
2022-10-18T10:15:42.365Z,102724.13
2022-10-18T10:18:23.101Z,102728.03
2022-10-18T10:20:55.792Z,102735.41
2022-10-18T10:23:29.753Z,102745.47
2022-10-18T10:26:04.277Z,102734.16
2022-10-18T10:28:39.765Z,102737.91
2022-10-18T10:31:22.078Z,102740.63
2022-10-18T10:34:02.145Z,102737.13
2022-10-18T10:36:33.096Z,102738.97
2022-10-18T10:39:09.054Z,102744.53
2022-10-18T10:41:43.497Z,102739.44
2022-10-18T10:44:19.012Z,102740.53
2022-10-18T10:46:51.077Z,102746.94
2022-10-18T10:49:40.694Z,102749.88
2022-10-18T10:52:28.787Z,102748.34
2022-10-18T10:55:34.176Z,102751.88
2022-10-18T10:57:55.740Z,102743.84
2022-10-18T11:00:45.851Z,102753.47
2022-10-18T11:03:33.816Z,102739.97
2022-10-18T11:06:04.171Z,102750.44
2022-10-18T11:08:39.028Z,102749.59
2022-10-18T11:11:23.031Z,102754.84
2022-10-18T11:14:21.182Z,102756.75
2022-10-18T11:17:05.529Z,102755.81
2022-10-18T11:19:44.206Z,102760.22
2022-10-18T11:22:19.928Z,102753.31
2022-10-18T11:24:49.929Z,102755.19
2022-10-18T11:27:26.588Z,102753.34
2022-10-18T11:30:21.354Z,102759.56
2022-10-18T11:33:02.026Z,102746.25
2022-10-18T11:35:41.709Z,102756.13
2022-10-18T11:38:32.544Z,102759.94
2022-10-18T11:41:24.973Z,102766.28
2022-10-18T11:44:02.562Z,102758.53
2022-10-18T11:46:50.129Z,102760.63
2022-10-18T11:49:37.379Z,102755.63
2022-10-18T11:52:14.950Z,102758.59
2022-10-18T11:54:56.704Z,102764.16
2022-10-18T11:57:43.923Z,102752.88
2022-10-18T12:03:23.791Z,102738.34
2022-10-18T12:05:55.498Z,102748.16
2022-10-18T12:08:32.187Z,102764.09
2022-10-18T12:11:06.414Z,102761.47
2022-10-18T12:13:42.567Z,102759.75
2022-10-18T12:16:13.809Z,102757.81
2022-10-18T12:18:55.256Z,102758.69
2022-10-18T12:21:28.373Z,102759.59
2022-10-18T12:24:01.519Z,102765.06
2022-10-18T12:26:32.576Z,102762.56
2022-10-18T12:29:13.711Z,102756.47
2022-10-18T12:31:48.505Z,102754.75
2022-10-18T12:34:43.148Z,102753.00
2022-10-18T12:37:51.245Z,102755.66
2022-10-18T12:40:26.025Z,102746.59
2022-10-18T12:42:56.406Z,102743.81
2022-10-18T12:45:35.067Z,102749.13
2022-10-18T12:48:08.365Z,102740.06
2022-10-18T12:50:45.292Z,102732.03
2022-10-18T12:53:22.828Z,102745.97
2022-10-18T12:55:54.852Z,102759.25
2022-10-18T12:58:33.398Z,102750.44
2022-10-18T13:01:08.242Z,102757.56
2022-10-18T13:03:54.350Z,102746.88
2022-10-18T13:06:27.113Z,102746.88
2022-10-18T13:09:20.629Z,102752.25
2022-10-18T13:11:51.372Z,102753.19
2022-10-18T13:15:05.781Z,102755.06
2022-10-18T13:17:47.990Z,102758.59
2022-10-18T13:20:27.998Z,102764.66
2022-10-18T13:23:30.058Z,102762.88
2022-10-18T13:26:13.951Z,102756.50
2022-10-18T13:28:54.185Z,102756.38
2022-10-18T13:31:31.173Z,102754.50
2022-10-18T13:34:28.041Z,102750.19
2022-10-18T13:37:03.352Z,102746.63
2022-10-18T13:39:36.633Z,102752.97
2022-10-18T13:42:23.080Z,102755.63
2022-10-18T13:44:52.819Z,102755.63
2022-10-18T13:47:41.977Z,102761.81
2022-10-18T13:50:29.905Z,102759.13
2022-10-18T13:53:37.241Z,102758.97
2022-10-18T13:56:46.433Z,102775.66
2022-10-18T13:59:42.059Z,102766.78
2022-10-18T14:02:51.489Z,102769.34
2022-10-18T14:05:44.417Z,102771.94
2022-10-18T14:08:18.867Z,102776.34
2022-10-18T14:11:03.560Z,102777.19
2022-10-18T14:13:44.958Z,102778.78
2022-10-18T14:16:30.513Z,102784.75
2022-10-18T14:19:14.358Z,102786.22
2022-10-18T14:21:51.826Z,102789.72
2022-10-18T14:24:25.472Z,102787.00
2022-10-18T14:27:19.777Z,102793.22
2022-10-18T14:29:53.679Z,102794.94
2022-10-18T14:32:28.375Z,102794.13
2022-10-18T14:35:30.522Z,102796.91
2022-10-18T14:37:51.123Z,102795.13
2022-10-18T14:40:36.499Z,102796.78
2022-10-18T14:43:09.339Z,102809.06
2022-10-18T14:45:42.095Z,102813.34
2022-10-18T14:48:18.175Z,102808.81
2022-10-18T14:50:51.241Z,102808.66
2022-10-18T14:53:25.288Z,102805.03
2022-10-18T14:56:00.862Z,102804.84
2022-10-18T14:58:31.129Z,102806.41
2022-10-18T15:01:03.590Z,102804.59
2022-10-18T15:03:38.008Z,102803.63
2022-10-18T15:06:09.716Z,102802.66
2022-10-18T15:08:42.099Z,102801.63
2022-10-18T15:11:14.461Z,102798.88
2022-10-18T15:13:51.465Z,102800.56
2022-10-18T15:16:27.114Z,102797.00
2022-10-18T15:19:09.189Z,102796.09
2022-10-18T15:21:39.373Z,102795.06
2022-10-18T15:24:32.355Z,102787.13
2022-10-18T15:27:06.308Z,102790.44
2022-10-18T15:29:37.765Z,102794.84
2022-10-18T15:32:17.719Z,102800.06
2022-10-18T15:34:47.926Z,102791.13
2022-10-18T15:37:21.075Z,102794.56
2022-10-18T15:39:50.861Z,102798.06
2022-10-18T15:42:47.597Z,102799.81
2022-10-18T15:45:48.779Z,102798.06
2022-10-18T15:48:26.817Z,102794.44
2022-10-18T15:51:01.301Z,102802.28
2022-10-18T15:53:37.481Z,102800.41
2022-10-18T15:56:09.526Z,102796.81
2022-10-18T15:58:44.986Z,102801.19
2022-10-18T16:01:20.663Z,102795.84
2022-10-18T16:06:24.236Z,102787.66
2022-10-18T16:08:55.950Z,102790.22
2022-10-18T16:11:27.379Z,102795.53
2022-10-18T16:13:59.662Z,102789.28
2022-10-18T16:16:32.412Z,102779.44
2022-10-18T16:19:05.696Z,102792.75
2022-10-18T16:21:37.404Z,102789.06
2022-10-18T16:24:08.959Z,102791.63
2022-10-18T16:26:40.367Z,102789.66
2022-10-18T16:29:15.033Z,102791.34
2022-10-18T16:31:46.840Z,102790.38
2022-10-18T16:34:19.316Z,102791.13
2022-10-18T16:36:49.191Z,102793.78
2022-10-18T16:39:21.278Z,102806.28
2022-10-18T16:41:51.520Z,102800.00
2022-10-18T16:47:42.299Z,102802.41
2022-10-18T16:50:22.831Z,102803.25
2022-10-18T16:52:52.642Z,102807.56
2022-10-18T16:55:25.131Z,102810.13
2022-10-18T16:57:54.997Z,102805.69
2022-10-18T17:00:25.959Z,102807.44
2022-10-18T17:02:55.712Z,102809.19
2022-10-18T17:05:31.285Z,102821.50
2022-10-18T17:08:01.208Z,102818.72
2022-10-18T17:10:31.095Z,102824.09
2022-10-18T17:13:00.857Z,102822.25
2022-10-18T17:15:32.950Z,102819.59
2022-10-18T17:18:06.110Z,102820.59
2022-10-18T17:20:38.506Z,102820.59
2022-10-18T17:23:08.885Z,102827.66
2022-10-18T17:25:46.431Z,102830.28
2022-10-18T17:28:27.537Z,102836.34
2022-10-18T17:30:57.255Z,102828.50
2022-10-18T17:33:26.957Z,102841.78
2022-10-18T17:35:59.283Z,102836.50
2022-10-18T17:38:29.091Z,102846.19
2022-10-18T17:40:58.854Z,102840.88
2022-10-18T17:43:29.012Z,102840.00
2022-10-18T17:45:59.354Z,102845.28
2022-10-18T17:48:29.305Z,102857.69
2022-10-18T17:51:01.681Z,102852.38
2022-10-18T17:53:32.996Z,102851.41
2022-10-18T17:56:03.144Z,102846.03
2022-10-18T17:58:34.064Z,102849.59
2022-10-18T18:01:11.715Z,102853.91
2022-10-18T18:03:41.808Z,102856.50
2022-10-18T18:06:19.437Z,102861.03
2022-10-18T18:08:49.766Z,102859.28
2022-10-18T18:11:20.989Z,102867.25
2022-10-18T18:13:50.692Z,102867.16
2022-10-18T18:16:23.313Z,102872.44
2022-10-18T18:18:54.982Z,102877.69
2022-10-18T18:21:28.478Z,102873.22
2022-10-18T18:23:58.673Z,102880.25
2022-10-18T18:26:29.053Z,102873.22
2022-10-18T18:28:58.874Z,102869.81
2022-10-18T18:31:34.400Z,102874.28
2022-10-18T18:34:08.655Z,102870.66
2022-10-18T18:36:41.080Z,102880.25
2022-10-18T18:39:11.890Z,102881.00
2022-10-18T18:41:41.611Z,102889.81
2022-10-18T18:44:11.321Z,102892.47
2022-10-18T18:46:41.038Z,102892.38
2022-10-18T18:49:10.901Z,102889.72
2022-10-18T18:51:44.433Z,102890.72
2022-10-18T18:54:17.284Z,102897.00
2022-10-18T18:56:47.305Z,102880.16
2022-10-18T18:59:17.874Z,102884.66
2022-10-18T19:01:47.700Z,102874.06
2022-10-18T19:04:17.533Z,102874.81
2022-10-18T19:06:49.869Z,102883.75
2022-10-18T19:09:22.673Z,102876.47
2022-10-18T19:11:53.840Z,102882.53
2022-10-18T19:14:25.774Z,102874.34
2022-10-18T19:16:58.857Z,102884.03
2022-10-18T19:19:30.431Z,102887.34
2022-10-18T19:22:05.145Z,102887.34
2022-10-18T19:24:34.942Z,102889.94
2022-10-18T19:27:08.998Z,102887.97
2022-10-18T19:29:41.164Z,102891.19
2022-10-18T19:32:15.152Z,102885.56
2022-10-18T19:34:45.259Z,102888.81
2022-10-18T19:37:18.617Z,102900.91
2022-10-18T19:39:48.878Z,102890.94
2022-10-18T19:42:22.710Z,102892.44
2022-10-18T19:44:55.987Z,102904.66
2022-10-18T19:47:25.652Z,102907.16
2022-10-18T19:49:55.603Z,102908.81
2022-10-18T19:52:28.541Z,102905.03
2022-10-18T19:54:58.469Z,102903.94
2022-10-18T19:57:28.951Z,102904.47
2022-10-18T20:00:00.032Z,102906.88
2022-10-18T20:02:31.165Z,102905.78
2022-10-18T20:05:02.408Z,102910.91
2022-10-18T20:07:34.747Z,102910.75
2022-10-18T20:10:04.446Z,102909.69
2022-10-18T20:12:34.393Z,102907.69
2022-10-18T20:15:04.373Z,102909.34
2022-10-18T20:17:34.211Z,102919.84
2022-10-18T20:20:03.948Z,102920.66
2022-10-18T20:22:37.229Z,102918.88
2022-10-18T20:25:07.650Z,102920.41
2022-10-18T20:27:37.410Z,102922.16
2022-10-18T20:30:10.528Z,102911.59
2022-10-18T20:32:42.070Z,102917.72
2022-10-18T20:35:12.881Z,102915.72
2022-10-18T20:37:45.249Z,102922.81
2022-10-18T20:40:16.091Z,102916.72
2022-10-18T20:42:45.888Z,102923.75
2022-10-18T20:45:15.577Z,102921.91
2022-10-18T20:47:45.580Z,102923.66
2022-10-18T20:50:15.318Z,102913.91
2022-10-18T20:52:51.299Z,102918.34
2022-10-18T20:55:21.329Z,102911.25
2022-10-18T20:57:51.009Z,102912.97
2022-10-18T21:00:20.921Z,102916.47
2022-10-18T21:02:50.608Z,102915.47
2022-10-18T21:05:20.386Z,102914.56
2022-10-18T21:07:52.759Z,102925.03
2022-10-18T21:10:22.490Z,102927.50
2022-10-18T21:12:52.181Z,102918.59
2022-10-18T21:15:22.409Z,102914.97
2022-10-18T21:17:55.411Z,102920.16
2022-10-18T21:20:25.169Z,102916.47
2022-10-18T21:22:57.577Z,102914.53
2022-10-18T21:25:27.272Z,102912.63
2022-10-18T21:27:56.951Z,102907.28
2022-10-18T21:30:26.702Z,102907.91
2022-10-18T21:32:56.520Z,102907.84
2022-10-18T21:35:26.405Z,102899.72
2022-10-18T21:37:58.729Z,102903.00
2022-10-18T21:40:28.473Z,102903.81
2022-10-18T21:42:58.423Z,102901.91
2022-10-18T21:45:28.341Z,102899.19
2022-10-18T21:47:58.068Z,102903.56
2022-10-18T21:50:27.908Z,102903.56
2022-10-18T21:53:00.400Z,102899.09
2022-10-18T21:55:30.154Z,102901.75
2022-10-18T21:57:59.889Z,102914.16
2022-10-18T22:00:29.621Z,102914.16
2022-10-18T22:03:09.566Z,102907.13
2022-10-18T22:05:39.542Z,102908.75
2022-10-18T22:08:12.235Z,102910.50
2022-10-18T22:10:42.070Z,102907.94
2022-10-18T22:13:12.036Z,102911.66
2022-10-18T22:15:41.860Z,102908.28
2022-10-18T22:18:11.605Z,102905.94
2022-10-18T22:20:41.621Z,102910.50
2022-10-18T22:23:14.239Z,102901.81
2022-10-18T22:25:43.926Z,102905.44
2022-10-18T22:28:13.733Z,102905.63
2022-10-18T22:30:43.603Z,102909.22
2022-10-18T22:33:13.320Z,102903.25
2022-10-18T22:35:43.043Z,102900.75
2022-10-18T22:38:15.667Z,102896.38
2022-10-18T22:40:45.537Z,102901.81
2022-10-18T22:43:15.355Z,102888.69
2022-10-18T22:45:45.060Z,102890.50
2022-10-18T22:48:14.747Z,102886.13
2022-10-18T22:50:44.468Z,102893.25
2022-10-18T22:53:16.811Z,102890.59
2022-10-18T22:55:46.577Z,102888.84
2022-10-18T22:58:16.266Z,102880.09
2022-10-18T23:00:46.014Z,102885.47
2022-10-18T23:03:18.216Z,102883.72
2022-10-18T23:05:49.418Z,102887.28
2022-10-18T23:08:21.788Z,102880.28
2022-10-18T23:10:55.585Z,102885.56
2022-10-18T23:13:26.495Z,102884.63
2022-10-18T23:15:56.645Z,102877.63
2022-10-18T23:18:26.330Z,102883.81
2022-10-18T23:21:03.469Z,102891.75
2022-10-18T23:23:38.330Z,102892.66
2022-10-18T23:26:10.288Z,102895.22
2022-10-18T23:28:41.589Z,102884.47
2022-10-18T23:31:12.825Z,102887.78
2022-10-18T23:33:43.238Z,102889.50
2022-10-18T23:36:13.890Z,102884.16
2022-10-18T23:38:46.620Z,102884.31
2022-10-18T23:41:17.926Z,102887.78
2022-10-18T23:43:49.456Z,102889.59
2022-10-18T23:46:20.739Z,102885.78
2022-10-18T23:48:51.194Z,102888.34
2022-10-18T23:51:21.218Z,102893.56
2022-10-18T23:53:53.576Z,102893.72
2022-10-18T23:56:23.309Z,102896.22
2022-10-18T23:58:53.078Z,102898.50
